createdAt,value
2023-01-25T00:00:56.340Z,53.83
2023-01-25T00:03:24.858Z,55.27
2023-01-25T00:06:01.041Z,53.87
2023-01-25T00:08:29.423Z,54.10
2023-01-25T00:10:58.687Z,54.57
2023-01-25T00:13:27.603Z,53.57
2023-01-25T00:16:03.112Z,54.00
2023-01-25T00:18:31.758Z,54.53
2023-01-25T00:21:00.361Z,53.90
2023-01-25T00:23:28.657Z,55.63
2023-01-25T00:25:59.190Z,53.50
2023-01-25T00:28:28.092Z,54.67
2023-01-25T00:31:00.409Z,55.43
2023-01-25T00:33:41.408Z,57.20
2023-01-25T00:36:28.695Z,54.53
2023-01-25T00:38:59.153Z,56.40
2023-01-25T00:41:27.945Z,57.27
2023-01-25T00:43:56.469Z,57.97
2023-01-25T00:46:26.335Z,55.10
2023-01-25T00:48:55.645Z,55.97
2023-01-25T00:51:24.392Z,57.87
2023-01-25T00:53:53.135Z,55.23
2023-01-25T00:56:21.510Z,58.40
2023-01-25T00:58:49.980Z,54.83
2023-01-25T01:01:18.302Z,55.63
2023-01-25T01:03:47.959Z,55.63
2023-01-25T01:06:16.160Z,57.13
2023-01-25T01:08:44.584Z,54.73
2023-01-25T01:11:13.980Z,54.37
2023-01-25T01:13:42.841Z,55.40
2023-01-25T01:16:14.130Z,55.40
2023-01-25T01:18:44.241Z,55.57
2023-01-25T01:21:14.808Z,54.87
2023-01-25T01:23:43.065Z,54.67
2023-01-25T01:26:13.510Z,55.30
2023-01-25T01:28:42.583Z,56.17
2023-01-25T01:31:14.305Z,56.67
2023-01-25T01:33:42.873Z,57.60
2023-01-25T01:36:14.781Z,53.97
2023-01-25T01:38:43.654Z,56.17
2023-01-25T01:41:12.496Z,56.30
2023-01-25T01:43:40.848Z,54.97
2023-01-25T01:46:14.764Z,52.83
2023-01-25T01:48:46.366Z,52.57
2023-01-25T01:51:22.236Z,52.70
2023-01-25T01:53:54.563Z,53.77
2023-01-25T01:56:29.400Z,52.97
2023-01-25T01:58:59.593Z,54.33
2023-01-25T02:01:28.141Z,54.53
2023-01-25T02:03:56.903Z,53.77
2023-01-25T02:06:37.727Z,56.43
2023-01-25T02:09:06.166Z,55.07
2023-01-25T02:11:35.116Z,55.33
2023-01-25T02:14:05.029Z,55.33
2023-01-25T02:16:33.519Z,54.80
2023-01-25T02:19:03.714Z,56.03
2023-01-25T02:21:40.224Z,56.03
2023-01-25T02:24:15.159Z,54.23
2023-01-25T02:26:45.875Z,55.00
2023-01-25T02:29:14.879Z,54.97
2023-01-25T02:31:46.072Z,54.37
2023-01-25T02:34:14.718Z,58.10
2023-01-25T02:36:43.542Z,57.47
2023-01-25T02:39:17.308Z,56.57
2023-01-25T02:41:49.043Z,58.87
2023-01-25T02:44:21.239Z,56.20
2023-01-25T02:46:49.970Z,55.10
2023-01-25T02:49:19.452Z,56.53
2023-01-25T02:51:50.048Z,56.57
2023-01-25T02:54:20.107Z,57.93
2023-01-25T02:56:49.861Z,55.63
2023-01-25T02:59:19.041Z,57.97
2023-01-25T03:01:47.891Z,57.13
2023-01-25T03:04:16.312Z,57.17
2023-01-25T03:06:44.654Z,58.00
2023-01-25T03:09:13.226Z,56.60
2023-01-25T03:11:42.064Z,58.63
2023-01-25T03:14:11.823Z,60.27
2023-01-25T03:16:40.216Z,57.67
2023-01-25T03:19:08.597Z,57.07
2023-01-25T03:21:37.066Z,59.83
2023-01-25T03:24:05.540Z,61.07
2023-01-25T03:26:54.355Z,59.40
2023-01-25T03:29:24.004Z,56.27
2023-01-25T03:31:52.459Z,56.20
2023-01-25T03:34:21.237Z,59.10
2023-01-25T03:36:49.631Z,61.23
2023-01-25T03:39:18.085Z,56.67
2023-01-25T03:41:46.502Z,59.73
2023-01-25T03:44:14.893Z,58.20
2023-01-25T03:46:44.596Z,59.70
2023-01-25T03:49:12.985Z,57.83
2023-01-25T03:51:41.363Z,58.57
2023-01-25T03:54:10.230Z,59.67
2023-01-25T03:56:38.939Z,60.10
2023-01-25T03:59:07.310Z,56.37
2023-01-25T04:01:36.164Z,58.83
2023-01-25T04:04:05.803Z,59.10
2023-01-25T04:06:34.022Z,58.57
2023-01-25T04:09:02.469Z,59.43
2023-01-25T04:11:30.818Z,60.20
2023-01-25T04:13:59.492Z,60.40
2023-01-25T04:16:30.548Z,60.03
2023-01-25T04:18:59.006Z,59.90
2023-01-25T04:21:28.671Z,59.43
2023-01-25T04:23:57.079Z,60.90
2023-01-25T04:26:25.488Z,61.57
2023-01-25T04:28:53.766Z,59.97
2023-01-25T04:31:22.276Z,59.03
2023-01-25T04:33:51.403Z,56.90
2023-01-25T04:36:19.798Z,61.77
2023-01-25T04:38:49.396Z,60.67
2023-01-25T04:41:17.635Z,59.87
2023-01-25T04:43:46.047Z,59.97
2023-01-25T04:46:14.543Z,60.70
2023-01-25T04:48:43.042Z,61.40
2023-01-25T04:51:11.275Z,59.77
2023-01-25T04:53:40.101Z,59.90
2023-01-25T04:56:09.881Z,59.73
2023-01-25T04:58:38.295Z,61.20
2023-01-25T05:01:07.427Z,61.70
2023-01-25T05:03:35.941Z,65.90
2023-01-25T05:06:04.274Z,60.37
2023-01-25T05:08:32.605Z,61.33
2023-01-25T05:11:01.064Z,62.93
2023-01-25T05:13:30.564Z,61.53
2023-01-25T05:15:58.985Z,61.47
2023-01-25T05:18:33.133Z,63.03
2023-01-25T05:21:28.074Z,62.00
2023-01-25T05:23:56.477Z,57.73
2023-01-25T05:26:42.734Z,62.57
2023-01-25T05:29:12.430Z,58.70
2023-01-25T05:31:40.832Z,59.67
2023-01-25T05:34:10.562Z,60.00
2023-01-25T05:36:39.028Z,59.00
2023-01-25T05:39:08.671Z,58.40
2023-01-25T05:41:37.100Z,61.93
2023-01-25T05:44:05.762Z,64.03
2023-01-25T05:46:35.308Z,60.03
2023-01-25T05:49:03.899Z,63.43
2023-01-25T05:51:32.535Z,63.87
2023-01-25T05:54:00.804Z,63.30
2023-01-25T05:56:29.465Z,65.93
2023-01-25T05:58:59.835Z,62.30
2023-01-25T06:01:28.900Z,65.07
2023-01-25T06:03:58.945Z,63.10
2023-01-25T06:06:27.351Z,60.47
2023-01-25T06:08:55.791Z,64.40
2023-01-25T06:11:25.387Z,63.90
2023-01-25T06:13:53.884Z,61.67
2023-01-25T06:16:22.452Z,60.53
2023-01-25T06:18:50.753Z,62.73
2023-01-25T06:21:20.848Z,62.23
2023-01-25T06:23:49.350Z,59.97
2023-01-25T06:26:17.973Z,62.80
2023-01-25T06:28:46.379Z,63.67
2023-01-25T06:31:15.893Z,64.37
2023-01-25T06:33:44.834Z,65.27
2023-01-25T06:36:14.945Z,65.10
2023-01-25T06:38:44.681Z,64.93
2023-01-25T06:41:13.511Z,64.27
2023-01-25T06:43:41.877Z,64.70
2023-01-25T06:46:12.043Z,64.90
2023-01-25T06:48:41.805Z,67.10
2023-01-25T06:51:11.696Z,66.33
2023-01-25T06:53:41.671Z,64.70
2023-01-25T06:56:13.019Z,63.63
2023-01-25T06:58:41.731Z,62.73
2023-01-25T07:01:14.535Z,66.07
2023-01-25T07:03:42.840Z,66.00
2023-01-25T07:06:12.282Z,65.43
2023-01-25T07:08:40.973Z,64.40
2023-01-25T07:11:13.890Z,65.47
2023-01-25T07:13:43.535Z,64.87
2023-01-25T07:16:14.135Z,66.70
2023-01-25T07:18:42.979Z,68.13
2023-01-25T07:21:13.862Z,64.70
2023-01-25T07:23:42.145Z,63.27
2023-01-25T07:26:18.468Z,62.03
2023-01-25T07:28:47.426Z,65.43
2023-01-25T07:31:16.898Z,62.63
2023-01-25T07:33:48.824Z,66.87
2023-01-25T07:36:17.291Z,63.27
2023-01-25T07:38:45.757Z,62.63
2023-01-25T07:41:16.508Z,61.90
2023-01-25T07:43:44.863Z,58.67
2023-01-25T07:46:15.597Z,61.07
2023-01-25T07:48:48.375Z,59.93
2023-01-25T07:51:23.696Z,60.87
2023-01-25T07:53:54.154Z,65.60
2023-01-25T07:56:25.539Z,71.88
2023-01-25T07:58:54.695Z,72.32
2023-01-25T08:01:24.399Z,61.73
2023-01-25T08:03:53.716Z,61.53
2023-01-25T08:06:27.500Z,61.70
2023-01-25T08:08:56.426Z,58.83
2023-01-25T08:11:28.031Z,59.80
2023-01-25T08:13:57.011Z,68.95
2023-01-25T08:16:27.833Z,65.27
2023-01-25T08:18:57.390Z,66.03
2023-01-25T08:21:29.939Z,63.23
2023-01-25T08:23:59.760Z,60.33
2023-01-25T08:26:30.121Z,69.20
2023-01-25T08:28:58.866Z,63.87
2023-01-25T08:31:28.917Z,64.93
2023-01-25T08:33:58.010Z,71.00
2023-01-25T08:36:28.028Z,68.60
2023-01-25T08:38:57.575Z,64.83
2023-01-25T08:41:27.164Z,64.43
2023-01-25T08:43:57.414Z,61.60
2023-01-25T08:46:30.226Z,62.57
2023-01-25T08:49:00.751Z,66.27
2023-01-25T08:51:31.707Z,66.90
2023-01-25T08:54:04.284Z,63.70
2023-01-25T08:56:32.697Z,61.53
2023-01-25T08:59:02.284Z,59.07
2023-01-25T09:01:30.748Z,59.33
2023-01-25T09:03:59.396Z,62.43
2023-01-25T09:06:28.003Z,57.53
2023-01-25T09:08:56.431Z,62.70
2023-01-25T09:11:24.684Z,62.83
2023-01-25T09:13:53.101Z,62.23
2023-01-25T09:16:29.543Z,63.83
2023-01-25T09:18:59.411Z,64.00
2023-01-25T09:21:28.047Z,60.63
2023-01-25T09:24:05.915Z,65.60
2023-01-25T09:26:35.527Z,63.57
2023-01-25T09:29:04.241Z,60.43
2023-01-25T09:31:34.504Z,56.90
2023-01-25T09:34:03.634Z,63.57
2023-01-25T09:36:32.110Z,62.60
2023-01-25T09:39:00.330Z,67.10
2023-01-25T09:41:43.362Z,75.37
2023-01-25T09:44:25.287Z,77.10
2023-01-25T09:46:57.881Z,76.20
2023-01-25T09:49:47.100Z,76.83
2023-01-25T09:52:30.214Z,74.17
2023-01-25T09:54:59.726Z,61.27
2023-01-25T09:57:32.098Z,77.33
2023-01-25T10:00:05.547Z,76.50
2023-01-25T10:02:41.827Z,75.33
2023-01-25T10:05:14.895Z,77.07
2023-01-25T10:07:54.653Z,74.73
2023-01-25T10:10:27.863Z,73.47
2023-01-25T10:12:56.325Z,74.00
2023-01-25T10:15:31.755Z,72.00
2023-01-25T10:18:06.612Z,74.23
2023-01-25T10:20:41.540Z,70.47
2023-01-25T10:23:28.267Z,74.60
2023-01-25T10:25:59.762Z,74.10
2023-01-25T10:28:41.993Z,72.97
2023-01-25T10:31:19.160Z,74.03
2023-01-25T10:33:50.447Z,74.43
2023-01-25T10:36:22.846Z,71.50
2023-01-25T10:38:57.385Z,71.53
2023-01-25T10:41:32.662Z,69.90
2023-01-25T10:44:18.404Z,71.57
2023-01-25T10:46:51.263Z,71.30
2023-01-25T10:49:25.880Z,71.10
2023-01-25T10:51:54.489Z,73.40
2023-01-25T10:54:24.496Z,72.83
2023-01-25T10:56:53.545Z,73.87
2023-01-25T10:59:25.433Z,73.93
2023-01-25T11:01:54.398Z,73.90
2023-01-25T11:04:33.620Z,71.00
2023-01-25T11:07:03.587Z,71.70
2023-01-25T11:09:38.061Z,71.83
2023-01-25T11:12:17.805Z,71.73
2023-01-25T11:14:49.705Z,69.17
2023-01-25T11:17:27.198Z,69.13
2023-01-25T11:20:17.648Z,77.38
2023-01-25T11:22:54.354Z,74.27
2023-01-25T11:25:30.677Z,72.07
2023-01-25T11:28:19.706Z,74.57
2023-01-25T11:30:48.972Z,79.80
2023-01-25T11:33:19.217Z,66.27
2023-01-25T11:36:23.059Z,57.40
2023-01-25T11:39:07.029Z,60.20
2023-01-25T11:41:48.010Z,58.30
2023-01-25T11:44:51.899Z,59.67
2023-01-25T11:47:33.986Z,55.23
2023-01-25T11:50:12.601Z,60.17
2023-01-25T11:52:59.939Z,60.17
2023-01-25T11:55:30.349Z,56.40
2023-01-25T11:58:12.987Z,56.93
2023-01-25T12:00:55.325Z,54.00
2023-01-25T12:03:53.219Z,56.33
2023-01-25T12:06:26.876Z,56.43
2023-01-25T12:09:12.938Z,56.77
2023-01-25T12:11:55.512Z,58.80
2023-01-25T12:14:35.710Z,57.33
2023-01-25T12:17:17.789Z,54.70
2023-01-25T12:20:06.917Z,58.07
2023-01-25T12:22:55.224Z,53.93
2023-01-25T12:25:33.740Z,55.53
2023-01-25T12:28:12.266Z,56.67
2023-01-25T12:30:47.821Z,58.10
2023-01-25T12:33:22.069Z,56.97
2023-01-25T12:35:56.098Z,55.77
2023-01-25T12:38:29.139Z,56.70
2023-01-25T12:41:03.653Z,56.40
2023-01-25T12:43:36.714Z,55.10
2023-01-25T12:46:14.530Z,55.57
2023-01-25T12:48:48.331Z,51.93
2023-01-25T12:51:17.530Z,58.27
2023-01-25T12:53:48.469Z,55.80
2023-01-25T12:56:32.772Z,56.03
2023-01-25T12:59:08.191Z,57.70
2023-01-25T13:01:44.248Z,55.30
2023-01-25T13:04:24.431Z,56.10
2023-01-25T13:06:58.223Z,58.20
2023-01-25T13:09:34.511Z,56.07
2023-01-25T13:12:05.949Z,56.23
2023-01-25T13:14:38.848Z,59.50
2023-01-25T13:17:22.279Z,55.30
2023-01-25T13:19:51.545Z,56.50
2023-01-25T13:22:55.264Z,56.90
2023-01-25T13:25:24.662Z,56.27
2023-01-25T13:27:56.500Z,55.73
2023-01-25T13:30:30.375Z,57.17
2023-01-25T13:33:02.821Z,57.60
2023-01-25T13:35:36.294Z,58.33
2023-01-25T13:38:26.413Z,56.37
2023-01-25T13:41:17.349Z,53.73
2023-01-25T13:43:50.075Z,55.77
2023-01-25T13:46:23.827Z,55.63
2023-01-25T13:49:03.012Z,56.97
2023-01-25T13:51:36.482Z,55.07
2023-01-25T13:54:05.170Z,56.43
2023-01-25T13:56:35.408Z,54.97
2023-01-25T13:59:05.038Z,55.37
2023-01-25T14:01:35.209Z,55.13
2023-01-25T14:04:05.693Z,56.20
2023-01-25T14:06:36.189Z,61.87
2023-01-25T14:09:09.043Z,60.88
2023-01-25T14:11:44.060Z,53.57
2023-01-25T14:14:25.711Z,54.37
2023-01-25T14:19:41.223Z,53.00
2023-01-25T14:22:14.426Z,53.30
2023-01-25T14:24:42.702Z,54.27
2023-01-25T14:27:15.878Z,54.27
2023-01-25T14:29:49.776Z,55.10
2023-01-25T14:32:21.854Z,55.50
2023-01-25T14:34:50.430Z,54.53
2023-01-25T14:37:21.715Z,55.30
2023-01-25T14:39:52.055Z,52.43
2023-01-25T14:42:21.132Z,55.43
2023-01-25T14:44:51.173Z,55.30
2023-01-25T14:47:27.528Z,56.63
2023-01-25T14:49:55.926Z,53.40
2023-01-25T14:52:27.063Z,52.37
2023-01-25T14:54:58.632Z,56.33
2023-01-25T14:57:35.948Z,52.37
2023-01-25T15:00:09.626Z,52.90
2023-01-25T15:02:41.940Z,51.87
2023-01-25T15:05:21.389Z,54.00
2023-01-25T15:07:51.278Z,55.27
2023-01-25T15:10:22.942Z,54.63
2023-01-25T15:13:12.722Z,55.03
2023-01-25T15:15:54.121Z,54.23
2023-01-25T15:18:51.113Z,57.53
2023-01-25T15:21:21.369Z,56.73
2023-01-25T15:23:50.689Z,55.93
2023-01-25T15:26:24.211Z,56.23
2023-01-25T15:28:54.061Z,54.33
2023-01-25T15:31:26.191Z,51.63
2023-01-25T15:33:55.437Z,55.67
2023-01-25T15:36:23.880Z,53.23
2023-01-25T15:38:52.309Z,53.57
2023-01-25T15:41:20.861Z,54.47
2023-01-25T15:43:49.813Z,53.70
2023-01-25T15:46:20.995Z,54.43
2023-01-25T15:48:51.686Z,53.07
2023-01-25T15:51:20.582Z,51.77
2023-01-25T15:53:49.360Z,51.43
2023-01-25T15:56:19.933Z,51.73
2023-01-25T15:58:52.584Z,52.30
2023-01-25T16:01:21.746Z,49.53
2023-01-25T16:03:51.557Z,50.43
2023-01-25T16:06:34.639Z,52.93
2023-01-25T16:09:05.064Z,52.43
2023-01-25T16:11:33.646Z,47.37
2023-01-25T16:14:02.871Z,54.87
2023-01-25T16:16:31.282Z,52.33
2023-01-25T16:19:01.433Z,54.80
2023-01-25T16:21:29.882Z,52.50
2023-01-25T16:23:58.404Z,54.63
2023-01-25T16:26:28.992Z,57.50
2023-01-25T16:28:57.474Z,55.97
2023-01-25T16:31:32.828Z,50.90
2023-01-25T16:34:03.123Z,50.60
2023-01-25T16:36:31.828Z,52.23
2023-01-25T16:39:09.763Z,52.80
2023-01-25T16:41:38.725Z,53.00
2023-01-25T16:44:07.083Z,52.90
2023-01-25T16:46:35.312Z,54.67
2023-01-25T16:49:07.042Z,54.10
2023-01-25T16:51:35.736Z,53.30
2023-01-25T16:54:04.703Z,51.67
2023-01-25T16:56:34.351Z,53.00
2023-01-25T16:59:04.551Z,53.47
2023-01-25T17:01:33.598Z,57.83
2023-01-25T17:04:02.941Z,52.53
2023-01-25T17:06:34.019Z,52.57
2023-01-25T17:09:12.665Z,51.40
2023-01-25T17:11:49.271Z,51.23
2023-01-25T17:14:19.880Z,55.53
2023-01-25T17:16:51.452Z,54.37
2023-01-25T17:19:20.363Z,54.80
2023-01-25T17:21:50.306Z,52.90
2023-01-25T17:24:21.502Z,55.83
2023-01-25T17:26:50.901Z,55.47
2023-01-25T17:29:19.516Z,54.37
2023-01-25T17:31:47.798Z,54.57
2023-01-25T17:34:19.264Z,55.83
2023-01-25T17:36:49.509Z,57.73
2023-01-25T17:39:19.457Z,56.50
2023-01-25T17:41:49.249Z,55.20
2023-01-25T17:44:21.240Z,66.07
2023-01-25T17:46:50.160Z,68.47
2023-01-25T17:49:19.184Z,68.70
2023-01-25T17:51:47.569Z,66.90
2023-01-25T17:54:17.232Z,69.17
2023-01-25T17:56:45.748Z,69.07
2023-01-25T17:59:14.207Z,71.77
2023-01-25T18:01:43.743Z,72.57
2023-01-25T18:04:13.323Z,67.10
2023-01-25T18:06:41.890Z,68.80
2023-01-25T18:09:10.561Z,65.80
2023-01-25T18:11:41.188Z,68.27
2023-01-25T18:14:12.811Z,66.90
2023-01-25T18:16:42.253Z,64.93
2023-01-25T18:19:10.875Z,65.87
2023-01-25T18:21:42.236Z,68.60
2023-01-25T18:24:25.296Z,67.13
2023-01-25T18:26:59.767Z,69.30
2023-01-25T18:29:53.580Z,68.90
2023-01-25T18:32:22.278Z,68.17
2023-01-25T18:34:50.689Z,70.93
2023-01-25T18:37:20.677Z,66.83
2023-01-25T18:39:51.226Z,68.33
2023-01-25T18:42:22.113Z,69.00
2023-01-25T18:44:50.559Z,71.70
2023-01-25T18:47:20.015Z,76.35
2023-01-25T18:49:49.269Z,77.70
2023-01-25T18:52:18.397Z,70.23
2023-01-25T18:54:47.185Z,68.57
2023-01-25T18:57:15.732Z,68.03
2023-01-25T18:59:45.911Z,61.87
2023-01-25T19:02:16.300Z,59.23
2023-01-25T19:04:45.496Z,58.83
2023-01-25T19:07:14.034Z,61.67
2023-01-25T19:09:43.716Z,63.80
2023-01-25T19:12:12.032Z,67.03
2023-01-25T19:14:41.966Z,66.50
2023-01-25T19:17:11.615Z,62.00
2023-01-25T19:19:40.053Z,58.73
2023-01-25T19:22:08.343Z,67.97
2023-01-25T19:24:36.741Z,68.10
2023-01-25T19:27:05.169Z,65.40
2023-01-25T19:29:33.595Z,73.53
2023-01-25T19:32:01.980Z,70.07
2023-01-25T19:34:32.003Z,69.13
2023-01-25T19:37:00.466Z,73.77
2023-01-25T19:39:29.089Z,69.03
2023-01-25T19:41:57.449Z,72.10
2023-01-25T19:44:26.088Z,73.43
2023-01-25T19:46:54.602Z,71.77
2023-01-25T19:49:23.376Z,72.87
2023-01-25T19:51:54.149Z,71.07
2023-01-25T19:54:24.141Z,70.47
2023-01-25T19:56:52.705Z,71.97
2023-01-25T19:59:23.376Z,72.37
2023-01-25T20:01:52.139Z,70.17
2023-01-25T20:04:22.220Z,68.80
2023-01-25T20:06:52.388Z,69.67
2023-01-25T20:09:24.911Z,72.13
2023-01-25T20:11:55.365Z,72.03
2023-01-25T20:14:24.592Z,76.40
2023-01-25T20:16:53.109Z,75.13
2023-01-25T20:19:21.598Z,68.47
2023-01-25T20:21:50.127Z,69.13
2023-01-25T20:24:20.074Z,71.67
2023-01-25T20:26:49.029Z,69.87
2023-01-25T20:29:17.433Z,70.30
2023-01-25T20:31:46.879Z,67.10
2023-01-25T20:34:16.729Z,69.50
2023-01-25T20:36:45.387Z,72.07
2023-01-25T20:39:15.477Z,71.00
2023-01-25T20:41:45.526Z,73.50
2023-01-25T20:44:17.079Z,68.97
2023-01-25T20:46:45.661Z,69.63
2023-01-25T20:49:16.890Z,68.73
2023-01-25T20:51:45.871Z,68.50
2023-01-25T20:54:15.322Z,72.13
2023-01-25T20:56:47.825Z,70.23
2023-01-25T20:59:17.754Z,71.13
2023-01-25T21:01:46.891Z,73.53
2023-01-25T21:04:15.297Z,70.83
2023-01-25T21:06:43.725Z,73.80
2023-01-25T21:09:12.953Z,74.87
2023-01-25T21:11:41.923Z,75.30
2023-01-25T21:14:11.566Z,75.90
2023-01-25T21:16:40.068Z,72.70
2023-01-25T21:19:08.673Z,71.33
2023-01-25T21:21:38.528Z,75.47
2023-01-25T21:24:07.648Z,77.23
2023-01-25T21:26:38.259Z,77.43
2023-01-25T21:29:07.614Z,74.53
2023-01-25T21:31:39.311Z,78.00
2023-01-25T21:34:09.231Z,82.47
2023-01-25T21:36:37.941Z,86.03
2023-01-25T21:39:06.387Z,79.30
2023-01-25T21:41:34.972Z,81.30
2023-01-25T21:44:21.442Z,79.93
2023-01-25T21:49:56.740Z,81.50
2023-01-25T21:52:25.140Z,77.90
2023-01-25T21:54:53.541Z,77.97
2023-01-25T21:57:21.964Z,81.33
2023-01-25T21:59:52.503Z,81.37
2023-01-25T22:02:23.556Z,81.63
2023-01-25T22:04:51.939Z,80.37
2023-01-25T22:07:20.392Z,78.87
2023-01-25T22:09:49.535Z,81.70
2023-01-25T22:12:17.921Z,79.27
2023-01-25T22:14:46.589Z,83.23
2023-01-25T22:17:15.009Z,77.60
2023-01-25T22:19:44.622Z,78.27
2023-01-25T22:22:13.204Z,76.20
2023-01-25T22:24:41.515Z,78.30
2023-01-25T22:27:32.419Z,76.93
2023-01-25T22:30:00.713Z,78.40
2023-01-25T22:32:29.101Z,73.07
2023-01-25T22:34:58.625Z,75.40
2023-01-25T22:37:27.081Z,77.27
2023-01-25T22:39:58.356Z,76.00
2023-01-25T22:42:26.875Z,75.63
2023-01-25T22:44:55.229Z,76.73
2023-01-25T22:47:23.706Z,74.30
2023-01-25T22:49:51.994Z,69.57
2023-01-25T22:52:21.498Z,66.13
2023-01-25T22:54:50.999Z,75.40
2023-01-25T22:57:19.553Z,73.80
2023-01-25T22:59:47.989Z,77.07
2023-01-25T23:02:16.441Z,72.97
2023-01-25T23:04:44.805Z,70.03
2023-01-25T23:07:18.641Z,73.23
2023-01-25T23:09:51.405Z,74.23
2023-01-25T23:12:20.385Z,73.57
2023-01-25T23:14:51.563Z,75.47
2023-01-25T23:17:38.005Z,73.47
2023-01-25T23:20:07.386Z,69.50
2023-01-25T23:22:35.789Z,71.07
2023-01-25T23:25:06.733Z,75.37
2023-01-25T23:27:35.094Z,69.67
2023-01-25T23:30:05.279Z,69.37
2023-01-25T23:32:33.687Z,68.93
2023-01-25T23:35:02.417Z,72.50
2023-01-25T23:37:30.821Z,70.40
2023-01-25T23:39:59.209Z,69.00
2023-01-25T23:42:28.898Z,69.93
2023-01-25T23:44:57.270Z,71.73
2023-01-25T23:47:25.680Z,71.53
2023-01-25T23:49:54.115Z,72.87
2023-01-25T23:52:22.520Z,71.83
2023-01-25T23:54:50.860Z,71.07
2023-01-25T23:57:19.717Z,71.30
2023-01-25T23:59:49.300Z,68.30
